Weather at Senai International Airport

Public forecast

Using degrees Celsius for public forecast. Weather courtesy of forecast.io.

Current aviation weather report (METAR) for Senai International Airport

2024/04/24 14:00 (retrieved 51 minutes ago)

WMKJ 241400Z 00000KT 9999 FEW022 29/26 Q1007

Aviation forecast (TAF) for Senai International Airport

2024/04/24 12:09 (retrieved 3 hours ago)

TAF TAF WMKJ 241100Z 2412/2512 05005KT 9999 FEW018